sensor_id;sensor_type;location;lat;lon;timestamp;pressure;altitude;pressure_sealevel;temperature;humidity
48964;BME280;34776;48.180;16.420;2023-01-05T00:01:47;100118.16;;;12.39;66.07
48964;BME280;34776;48.180;16.420;2023-01-05T00:04:13;100093.38;;;12.37;66.76
48964;BME280;34776;48.180;16.420;2023-01-05T00:06:39;100112.97;;;12.36;66.76
48964;BME280;34776;48.180;16.420;2023-01-05T00:09:06;100100.59;;;12.35;67.39
48964;BME280;34776;48.180;16.420;2023-01-05T00:11:33;100078.75;;;12.29;67.86
48964;BME280;34776;48.180;16.420;2023-01-05T00:14:19;100062.16;;;12.24;68.40
48964;BME280;34776;48.180;16.420;2023-01-05T00:17:05;100079.81;;;12.09;69.37
48964;BME280;34776;48.180;16.420;2023-01-05T00:19:49;100080.56;;;11.95;70.21
48964;BME280;34776;48.180;16.420;2023-01-05T00:22:41;100072.94;;;11.87;71.49
48964;BME280;34776;48.180;16.420;2023-01-05T00:25:10;100064.94;;;11.87;72.08
48964;BME280;34776;48.180;16.420;2023-01-05T00:27:36;100076.34;;;11.91;71.94
48964;BME280;34776;48.180;16.420;2023-01-05T00:30:03;100069.81;;;11.96;71.87
48964;BME280;34776;48.180;16.420;2023-01-05T00:32:29;100063.13;;;12.05;71.30
48964;BME280;34776;48.180;16.420;2023-01-05T00:34:56;100059.47;;;12.08;70.83
48964;BME280;34776;48.180;16.420;2023-01-05T00:37:23;100054.75;;;12.13;70.86
48964;BME280;34776;48.180;16.420;2023-01-05T00:39:49;100048.31;;;12.17;70.81
48964;BME280;34776;48.180;16.420;2023-01-05T00:42:15;100030.09;;;12.25;70.34
48964;BME280;34776;48.180;16.420;2023-01-05T00:44:40;100041.34;;;12.30;70.67
48964;BME280;34776;48.180;16.420;2023-01-05T00:47:06;100031.56;;;12.31;70.40
48964;BME280;34776;48.180;16.420;2023-01-05T00:49:31;100026.75;;;12.37;69.99
48964;BME280;34776;48.180;16.420;2023-01-05T00:51:56;100038.13;;;12.41;70.25
48964;BME280;34776;48.180;16.420;2023-01-05T00:54:22;100027.53;;;12.39;70.12
48964;BME280;34776;48.180;16.420;2023-01-05T00:56:47;100026.44;;;12.44;70.25
48964;BME280;34776;48.180;16.420;2023-01-05T00:59:16;100023.00;;;12.42;70.36
48964;BME280;34776;48.180;16.420;2023-01-05T01:01:45;100021.16;;;12.42;70.54
48964;BME280;34776;48.180;16.420;2023-01-05T01:04:12;100018.09;;;12.50;70.37
48964;BME280;34776;48.180;16.420;2023-01-05T01:06:37;100022.47;;;12.51;70.44
48964;BME280;34776;48.180;16.420;2023-01-05T01:09:03;100032.97;;;12.54;70.49
48964;BME280;34776;48.180;16.420;2023-01-05T01:11:29;100052.56;;;12.53;70.46
48964;BME280;34776;48.180;16.420;2023-01-05T01:13:54;100036.47;;;12.54;70.66
48964;BME280;34776;48.180;16.420;2023-01-05T01:16:20;100052.22;;;12.59;70.34
48964;BME280;34776;48.180;16.420;2023-01-05T01:18:45;100062.72;;;12.62;70.42
48964;BME280;34776;48.180;16.420;2023-01-05T01:21:11;100036.84;;;12.64;70.13
48964;BME280;34776;48.180;16.420;2023-01-05T01:23:37;100036.72;;;12.66;70.22
48964;BME280;34776;48.180;16.420;2023-01-05T01:26:07;100054.53;;;12.65;70.20
48964;BME280;34776;48.180;16.420;2023-01-05T01:28:33;100047.50;;;12.64;70.08
48964;BME280;34776;48.180;16.420;2023-01-05T01:30:59;100051.88;;;12.65;70.29
48964;BME280;34776;48.180;16.420;2023-01-05T01:33:25;100049.91;;;12.69;70.44
48964;BME280;34776;48.180;16.420;2023-01-05T01:35:51;100043.59;;;12.70;70.82
48964;BME280;34776;48.180;16.420;2023-01-05T01:38:16;100036.56;;;12.69;70.74
48964;BME280;34776;48.180;16.420;2023-01-05T01:40:44;100037.44;;;12.69;71.27
48964;BME280;34776;48.180;16.420;2023-01-05T01:46:03;100018.41;;;12.59;71.90
48964;BME280;34776;48.180;16.420;2023-01-05T01:48:29;100021.00;;;12.61;72.15
48964;BME280;34776;48.180;16.420;2023-01-05T01:50:55;100024.50;;;12.62;72.21
48964;BME280;34776;48.180;16.420;2023-01-05T01:53:26;100025.81;;;12.54;72.96
48964;BME280;34776;48.180;16.420;2023-01-05T01:55:53;100013.53;;;12.52;73.25
48964;BME280;34776;48.180;16.420;2023-01-05T01:58:23;100016.09;;;12.53;73.25
48964;BME280;34776;48.180;16.420;2023-01-05T02:00:50;100008.53;;;12.46;73.60
48964;BME280;34776;48.180;16.420;2023-01-05T02:03:15;99998.75;;;12.46;73.96
48964;BME280;34776;48.180;16.420;2023-01-05T02:05:41;99981.19;;;12.42;74.16
48964;BME280;34776;48.180;16.420;2023-01-05T02:08:11;99984.13;;;12.37;74.13
48964;BME280;34776;48.180;16.420;2023-01-05T02:13:39;99989.38;;;12.39;74.13
48964;BME280;34776;48.180;16.420;2023-01-05T02:28:02;99954.69;;;12.55;73.45
48964;BME280;34776;48.180;16.420;2023-01-05T02:30:51;99952.81;;;12.57;73.40
48964;BME280;34776;48.180;16.420;2023-01-05T02:41:58;99948.47;;;12.70;72.18
48964;BME280;34776;48.180;16.420;2023-01-05T02:44:30;99938.34;;;12.77;72.25
48964;BME280;34776;48.180;16.420;2023-01-05T02:46:59;99930.22;;;12.78;72.13
48964;BME280;34776;48.180;16.420;2023-01-05T02:49:25;99932.81;;;12.80;72.04
48964;BME280;34776;48.180;16.420;2023-01-05T02:51:54;99927.56;;;12.78;71.84
48964;BME280;34776;48.180;16.420;2023-01-05T02:54:33;99919.56;;;12.78;71.58
48964;BME280;34776;48.180;16.420;2023-01-05T02:57:08;99929.22;;;12.81;71.06
48964;BME280;34776;48.180;16.420;2023-01-05T02:59:41;99926.28;;;12.86;71.22
48964;BME280;34776;48.180;16.420;2023-01-05T03:02:16;99911.97;;;12.87;71.11
48964;BME280;34776;48.180;16.420;2023-01-05T03:04:52;99928.66;;;12.90;70.96
48964;BME280;34776;48.180;16.420;2023-01-05T03:07:25;99942.06;;;12.89;70.23
48964;BME280;34776;48.180;16.420;2023-01-05T03:09:51;99934.84;;;12.91;70.34
48964;BME280;34776;48.180;16.420;2023-01-05T03:12:22;99916.00;;;12.94;70.01
48964;BME280;34776;48.180;16.420;2023-01-05T03:15:15;99928.38;;;12.95;69.83
48964;BME280;34776;48.180;16.420;2023-01-05T03:17:49;99931.66;;;13.00;69.82
48964;BME280;34776;48.180;16.420;2023-01-05T03:20:17;99939.66;;;13.00;69.71
48964;BME280;34776;48.180;16.420;2023-01-05T03:22:47;99923.66;;;13.00;69.41
48964;BME280;34776;48.180;16.420;2023-01-05T03:25:33;99917.34;;;13.01;69.06
48964;BME280;34776;48.180;16.420;2023-01-05T03:31:41;99900.19;;;12.91;68.61
48964;BME280;34776;48.180;16.420;2023-01-05T03:34:42;99899.00;;;12.80;68.77
48964;BME280;34776;48.180;16.420;2023-01-05T03:38:12;99889.31;;;12.79;67.98
48964;BME280;34776;48.180;16.420;2023-01-05T03:40:38;99881.72;;;12.88;68.67
48964;BME280;34776;48.180;16.420;2023-01-05T03:43:05;99865.03;;;12.84;68.51
48964;BME280;34776;48.180;16.420;2023-01-05T03:45:50;99860.34;;;12.73;68.17
48964;BME280;34776;48.180;16.420;2023-01-05T03:48:16;99861.25;;;12.72;68.85
48964;BME280;34776;48.180;16.420;2023-01-05T03:50:42;99858.88;;;12.68;68.44
48964;BME280;34776;48.180;16.420;2023-01-05T03:53:07;99859.75;;;12.68;68.69
48964;BME280;34776;48.180;16.420;2023-01-05T03:55:33;99848.50;;;12.63;68.53
48964;BME280;34776;48.180;16.420;2023-01-05T03:57:58;99854.97;;;12.59;68.75
48964;BME280;34776;48.180;16.420;2023-01-05T04:00:24;99843.53;;;12.57;68.57
48964;BME280;34776;48.180;16.420;2023-01-05T04:02:50;99837.63;;;12.52;68.85
48964;BME280;34776;48.180;16.420;2023-01-05T04:05:15;99836.75;;;12.51;69.17
48964;BME280;34776;48.180;16.420;2023-01-05T04:07:41;99835.72;;;12.54;69.07
48964;BME280;34776;48.180;16.420;2023-01-05T04:10:06;99839.53;;;12.50;68.59
48964;BME280;34776;48.180;16.420;2023-01-05T04:12:32;99833.41;;;12.48;69.16
48964;BME280;34776;48.180;16.420;2023-01-05T04:14:57;99845.00;;;12.47;68.83
48964;BME280;34776;48.180;16.420;2023-01-05T04:17:23;99832.44;;;12.49;69.03
48964;BME280;34776;48.180;16.420;2023-01-05T04:19:48;99839.53;;;12.50;68.87
48964;BME280;34776;48.180;16.420;2023-01-05T04:22:13;99818.84;;;12.53;68.50
48964;BME280;34776;48.180;16.420;2023-01-05T04:24:39;99823.16;;;12.56;68.64
48964;BME280;34776;48.180;16.420;2023-01-05T04:27:04;99814.19;;;12.57;68.74
48964;BME280;34776;48.180;16.420;2023-01-05T04:29:30;99816.09;;;12.55;68.48
48964;BME280;34776;48.180;16.420;2023-01-05T04:31:55;99813.00;;;12.63;67.99
48964;BME280;34776;48.180;16.420;2023-01-05T04:34:20;99810.25;;;12.64;68.11
48964;BME280;34776;48.180;16.420;2023-01-05T04:36:46;99800.44;;;12.65;67.93
48964;BME280;34776;48.180;16.420;2023-01-05T04:39:13;99795.78;;;12.68;67.75
48964;BME280;34776;48.180;16.420;2023-01-05T04:41:39;99795.78;;;12.68;67.61
48964;BME280;34776;48.180;16.420;2023-01-05T04:44:04;99792.16;;;12.69;67.75
48964;BME280;34776;48.180;16.420;2023-01-05T04:46:30;99799.19;;;12.70;67.91
48964;BME280;34776;48.180;16.420;2023-01-05T04:48:56;99805.19;;;12.74;67.57
48964;BME280;34776;48.180;16.420;2023-01-05T04:51:21;99805.88;;;12.77;67.30
48964;BME280;34776;48.180;16.420;2023-01-05T04:53:47;99792.34;;;12.80;67.21
48964;BME280;34776;48.180;16.420;2023-01-05T04:56:12;99786.06;;;12.82;67.21
48964;BME280;34776;48.180;16.420;2023-01-05T04:58:38;99792.16;;;12.84;67.18
48964;BME280;34776;48.180;16.420;2023-01-05T05:01:03;99793.31;;;12.79;66.90
48964;BME280;34776;48.180;16.420;2023-01-05T05:03:28;99799.00;;;12.73;67.45
48964;BME280;34776;48.180;16.420;2023-01-05T05:05:55;99786.63;;;12.72;67.53
48964;BME280;34776;48.180;16.420;2023-01-05T05:08:20;99767.00;;;12.73;66.98
48964;BME280;34776;48.180;16.420;2023-01-05T05:10:46;99759.78;;;12.75;66.75
48964;BME280;34776;48.180;16.420;2023-01-05T05:13:11;99763.00;;;12.80;66.55
48964;BME280;34776;48.180;16.420;2023-01-05T05:15:37;99744.34;;;12.80;66.84
48964;BME280;34776;48.180;16.420;2023-01-05T05:18:02;99737.78;;;12.72;66.59
48964;BME280;34776;48.180;16.420;2023-01-05T05:20:28;99747.13;;;12.65;66.89
48964;BME280;34776;48.180;16.420;2023-01-05T05:22:53;99738.53;;;12.59;67.01
48964;BME280;34776;48.180;16.420;2023-01-05T05:25:18;99741.31;;;12.58;66.84
48964;BME280;34776;48.180;16.420;2023-01-05T05:27:44;99736.91;;;12.57;66.76
48964;BME280;34776;48.180;16.420;2023-01-05T05:30:09;99723.56;;;12.57;66.67
48964;BME280;34776;48.180;16.420;2023-01-05T05:32:35;99714.66;;;12.58;66.47
48964;BME280;34776;48.180;16.420;2023-01-05T05:35:00;99725.09;;;12.61;66.36
48964;BME280;34776;48.180;16.420;2023-01-05T05:37:26;99724.94;;;12.64;66.40
48964;BME280;34776;48.180;16.420;2023-01-05T05:39:51;99698.06;;;12.67;66.29
48964;BME280;34776;48.180;16.420;2023-01-05T05:42:16;99698.84;;;12.69;66.33
48964;BME280;34776;48.180;16.420;2023-01-05T05:44:42;99708.44;;;12.72;66.01
48964;BME280;34776;48.180;16.420;2023-01-05T05:47:07;99682.63;;;12.72;66.18
48964;BME280;34776;48.180;16.420;2023-01-05T05:49:33;99683.59;;;12.71;65.99
48964;BME280;34776;48.180;16.420;2023-01-05T05:51:58;99695.97;;;12.72;65.78
48964;BME280;34776;48.180;16.420;2023-01-05T05:54:23;99696.16;;;12.69;66.34
48964;BME280;34776;48.180;16.420;2023-01-05T05:56:49;99692.75;;;12.67;66.39
48964;BME280;34776;48.180;16.420;2023-01-05T05:59:14;99678.47;;;12.68;66.49
48964;BME280;34776;48.180;16.420;2023-01-05T06:01:39;99676.38;;;12.73;66.08
48964;BME280;34776;48.180;16.420;2023-01-05T06:04:05;99686.81;;;12.76;65.48
48964;BME280;34776;48.180;16.420;2023-01-05T06:06:30;99683.78;;;12.83;65.53
48964;BME280;34776;48.180;16.420;2023-01-05T06:08:55;99702.44;;;12.83;65.51
48964;BME280;34776;48.180;16.420;2023-01-05T06:11:21;99691.59;;;12.86;65.58
48964;BME280;34776;48.180;16.420;2023-01-05T06:13:46;99690.75;;;12.85;65.59
48964;BME280;34776;48.180;16.420;2023-01-05T06:16:13;99670.28;;;12.86;65.51
48964;BME280;34776;48.180;16.420;2023-01-05T06:18:39;99685.22;;;12.88;65.36
48964;BME280;34776;48.180;16.420;2023-01-05T06:21:05;99687.03;;;12.88;65.32
48964;BME280;34776;48.180;16.420;2023-01-05T06:23:30;99694.06;;;12.89;65.27
48964;BME280;34776;48.180;16.420;2023-01-05T06:25:56;99699.41;;;12.89;65.42
48964;BME280;34776;48.180;16.420;2023-01-05T06:28:21;99697.50;;;12.91;65.76
48964;BME280;34776;48.180;16.420;2023-01-05T06:30:46;99686.06;;;12.89;65.64
48964;BME280;34776;48.180;16.420;2023-01-05T06:33:12;99680.72;;;12.89;65.78
48964;BME280;34776;48.180;16.420;2023-01-05T06:35:37;99680.84;;;12.87;65.89
48964;BME280;34776;48.180;16.420;2023-01-05T06:38:03;99670.28;;;12.86;66.21
48964;BME280;34776;48.180;16.420;2023-01-05T06:40:28;99665.69;;;12.88;65.98
48964;BME280;34776;48.180;16.420;2023-01-05T06:42:54;99670.06;;;12.89;66.29
48964;BME280;34776;48.180;16.420;2023-01-05T06:45:19;99682.53;;;12.88;66.17
48964;BME280;34776;48.180;16.420;2023-01-05T06:47:45;99682.63;;;12.87;66.52
48964;BME280;34776;48.180;16.420;2023-01-05T06:50:10;99686.81;;;12.91;66.51
48964;BME280;34776;48.180;16.420;2023-01-05T06:52:36;99675.84;;;12.95;66.50
48964;BME280;34776;48.180;16.420;2023-01-05T06:55:09;99678.03;;;13.03;65.92
48964;BME280;34776;48.180;16.420;2023-01-05T06:57:34;99678.50;;;13.10;65.86
48964;BME280;34776;48.180;16.420;2023-01-05T07:00:03;99673.84;;;13.13;65.94
48964;BME280;34776;48.180;16.420;2023-01-05T07:02:28;99673.63;;;13.16;65.82
48964;BME280;34776;48.180;16.420;2023-01-05T07:04:53;99692.13;;;13.19;65.79
48964;BME280;34776;48.180;16.420;2023-01-05T07:07:19;99674.13;;;13.23;65.50
48964;BME280;34776;48.180;16.420;2023-01-05T07:09:44;99672.28;;;13.24;65.48
48964;BME280;34776;48.180;16.420;2023-01-05T07:12:13;99673.06;;;13.26;65.42
48964;BME280;34776;48.180;16.420;2023-01-05T07:14:38;99676.31;;;13.31;65.20
48964;BME280;34776;48.180;16.420;2023-01-05T07:17:04;99678.88;;;13.32;65.28
48964;BME280;34776;48.180;16.420;2023-01-05T07:19:29;99689.34;;;13.35;65.47
48964;BME280;34776;48.180;16.420;2023-01-05T07:21:54;99695.34;;;13.39;65.34
48964;BME280;34776;48.180;16.420;2023-01-05T07:24:20;99688.19;;;13.39;65.03
48964;BME280;34776;48.180;16.420;2023-01-05T07:26:45;99686.00;;;13.46;64.75
48964;BME280;34776;48.180;16.420;2023-01-05T07:29:10;99696.38;;;13.51;64.69
48964;BME280;34776;48.180;16.420;2023-01-05T07:31:36;99681.28;;;13.50;64.48
48964;BME280;34776;48.180;16.420;2023-01-05T07:34:01;99689.03;;;13.54;64.70
48964;BME280;34776;48.180;16.420;2023-01-05T07:36:27;99692.22;;;13.59;64.41
48964;BME280;34776;48.180;16.420;2023-01-05T07:38:52;99692.00;;;13.63;64.29
48964;BME280;34776;48.180;16.420;2023-01-05T07:41:18;99697.16;;;13.66;64.48
48964;BME280;34776;48.180;16.420;2023-01-05T07:43:43;99702.28;;;13.69;64.09
48964;BME280;34776;48.180;16.420;2023-01-05T07:46:12;99710.88;;;13.74;64.12
48964;BME280;34776;48.180;16.420;2023-01-05T07:48:38;99691.78;;;13.80;63.87
48964;BME280;34776;48.180;16.420;2023-01-05T07:51:05;99704.91;;;13.83;63.93
48964;BME280;34776;48.180;16.420;2023-01-05T07:53:32;99696.59;;;13.88;64.10
48964;BME280;34776;48.180;16.420;2023-01-05T07:55:59;99703.66;;;13.89;63.94
48964;BME280;34776;48.180;16.420;2023-01-05T07:58:26;99713.28;;;13.91;63.90
48964;BME280;34776;48.180;16.420;2023-01-05T08:00:52;99708.59;;;13.95;63.79
48964;BME280;34776;48.180;16.420;2023-01-05T08:03:17;99702.84;;;14.01;64.09
48964;BME280;34776;48.180;16.420;2023-01-05T08:05:43;99697.50;;;14.01;63.88
48964;BME280;34776;48.180;16.420;2023-01-05T08:08:09;99698.13;;;14.05;63.82
48964;BME280;34776;48.180;16.420;2023-01-05T08:10:37;99691.75;;;14.07;63.60
48964;BME280;34776;48.180;16.420;2023-01-05T08:13:04;99698.78;;;14.08;63.54
48964;BME280;34776;48.180;16.420;2023-01-05T08:15:53;99695.44;;;14.05;63.54
48964;BME280;34776;48.180;16.420;2023-01-05T08:18:19;99694.50;;;14.06;63.61
48964;BME280;34776;48.180;16.420;2023-01-05T08:20:55;99700.91;;;14.03;63.67
48964;BME280;34776;48.180;16.420;2023-01-05T08:23:23;99690.22;;;14.03;64.20
48964;BME280;34776;48.180;16.420;2023-01-05T08:25:49;99704.53;;;14.02;63.97
48964;BME280;34776;48.180;16.420;2023-01-05T08:28:15;99695.56;;;14.03;63.98
48964;BME280;34776;48.180;16.420;2023-01-05T08:30:40;99711.28;;;14.08;64.09
48964;BME280;34776;48.180;16.420;2023-01-05T08:33:06;99711.19;;;14.09;63.71
48964;BME280;34776;48.180;16.420;2023-01-05T08:35:31;99709.28;;;14.11;63.77
48964;BME280;34776;48.180;16.420;2023-01-05T08:37:56;99744.75;;;14.13;63.60
48964;BME280;34776;48.180;16.420;2023-01-05T08:40:22;99716.97;;;14.16;63.62
48964;BME280;34776;48.180;16.420;2023-01-05T08:42:49;99723.06;;;14.18;63.47
48964;BME280;34776;48.180;16.420;2023-01-05T08:45:15;99706.19;;;14.17;63.31
48964;BME280;34776;48.180;16.420;2023-01-05T08:47:41;99716.75;;;14.19;63.23
48964;BME280;34776;48.180;16.420;2023-01-05T08:50:08;99709.50;;;14.21;63.19
48964;BME280;34776;48.180;16.420;2023-01-05T08:52:34;99725.31;;;14.24;62.94
48964;BME280;34776;48.180;16.420;2023-01-05T08:54:59;99716.34;;;14.25;63.11
48964;BME280;34776;48.180;16.420;2023-01-05T08:57:25;99715.16;;;14.29;63.06
48964;BME280;34776;48.180;16.420;2023-01-05T08:59:50;99707.81;;;14.33;62.92
48964;BME280;34776;48.180;16.420;2023-01-05T09:02:16;99727.47;;;14.32;62.75
48964;BME280;34776;48.180;16.420;2023-01-05T09:04:41;99711.56;;;14.30;62.68
48964;BME280;34776;48.180;16.420;2023-01-05T09:07:06;99716.16;;;14.28;63.15
48964;BME280;34776;48.180;16.420;2023-01-05T09:09:32;99719.75;;;14.27;62.63
48964;BME280;34776;48.180;16.420;2023-01-05T09:11:57;99709.28;;;14.24;62.90
48964;BME280;34776;48.180;16.420;2023-01-05T09:14:23;99727.88;;;14.26;62.84
48964;BME280;34776;48.180;16.420;2023-01-05T09:16:48;99720.59;;;14.28;62.52
48964;BME280;34776;48.180;16.420;2023-01-05T09:19:13;99724.69;;;14.33;62.94
48964;BME280;34776;48.180;16.420;2023-01-05T09:21:39;99710.72;;;14.43;62.16
48964;BME280;34776;48.180;16.420;2023-01-05T09:26:40;99729.13;;;14.60;62.01
48964;BME280;34776;48.180;16.420;2023-01-05T09:29:06;99719.50;;;14.70;61.90
48964;BME280;34776;48.180;16.420;2023-01-05T09:34:20;99730.09;;;14.85;61.20
48964;BME280;34776;48.180;16.420;2023-01-05T09:36:46;99734.38;;;14.87;61.25
48964;BME280;34776;48.180;16.420;2023-01-05T09:39:11;99745.59;;;14.92;60.91
48964;BME280;34776;48.180;16.420;2023-01-05T09:49:56;99743.53;;;15.21;61.12
48964;BME280;34776;48.180;16.420;2023-01-05T09:52:22;99768.69;;;15.32;60.52
48964;BME280;34776;48.180;16.420;2023-01-05T09:54:48;99760.41;;;15.48;60.25
48964;BME280;34776;48.180;16.420;2023-01-05T09:57:22;99749.19;;;15.67;59.43
48964;BME280;34776;48.180;16.420;2023-01-05T09:59:55;99747.81;;;15.74;59.12
48964;BME280;34776;48.180;16.420;2023-01-05T10:02:33;99742.09;;;15.78;58.35
48964;BME280;34776;48.180;16.420;2023-01-05T10:05:04;99748.22;;;15.68;58.99
48964;BME280;34776;48.180;16.420;2023-01-05T10:07:41;99781.50;;;15.52;59.57
48964;BME280;34776;48.180;16.420;2023-01-05T10:10:26;99781.63;;;15.38;59.15
48964;BME280;34776;48.180;16.420;2023-01-05T10:12:57;99780.25;;;15.19;60.49
48964;BME280;34776;48.180;16.420;2023-01-05T10:15:45;99772.25;;;14.68;61.87
48964;BME280;34776;48.180;16.420;2023-01-05T10:18:26;99796.75;;;14.35;63.89
48964;BME280;34776;48.180;16.420;2023-01-05T10:31:54;99865.81;;;12.70;76.84
48964;BME280;34776;48.180;16.420;2023-01-05T10:44:55;99875.31;;;11.33;89.64
48964;BME280;34776;48.180;16.420;2023-01-05T10:47:24;99869.66;;;11.39;90.69
48964;BME280;34776;48.180;16.420;2023-01-05T10:49:52;99873.31;;;11.21;90.11
48964;BME280;34776;48.180;16.420;2023-01-05T10:52:21;99849.94;;;11.10;91.16
48964;BME280;34776;48.180;16.420;2023-01-05T10:54:50;99855.56;;;11.04;91.85
48964;BME280;34776;48.180;16.420;2023-01-05T11:00:00;99847.47;;;11.23;92.51
48964;BME280;34776;48.180;16.420;2023-01-05T11:02:29;99839.69;;;11.35;92.05
48964;BME280;34776;48.180;16.420;2023-01-05T11:05:06;99841.94;;;11.43;92.03
48964;BME280;34776;48.180;16.420;2023-01-05T11:07:47;99833.13;;;11.58;91.15
48964;BME280;34776;48.180;16.420;2023-01-05T11:11:01;99852.44;;;11.62;90.59
48964;BME280;34776;48.180;16.420;2023-01-05T11:13:35;99854.16;;;11.47;90.05
48964;BME280;34776;48.180;16.420;2023-01-05T11:16:12;99835.25;;;11.36;91.10
48964;BME280;34776;48.180;16.420;2023-01-05T11:19:05;99843.00;;;11.56;92.41
48964;BME280;34776;48.180;16.420;2023-01-05T11:24:00;99850.09;;;11.40;91.24
48964;BME280;34776;48.180;16.420;2023-01-05T11:26:36;99834.34;;;11.20;91.94
48964;BME280;34776;48.180;16.420;2023-01-05T11:29:15;99846.22;;;11.30;93.56
48964;BME280;34776;48.180;16.420;2023-01-05T11:36:58;99819.84;;;11.90;95.08
48964;BME280;34776;48.180;16.420;2023-01-05T11:39:32;99808.69;;;12.00;94.35
48964;BME280;34776;48.180;16.420;2023-01-05T11:42:12;99824.31;;;12.06;94.43
48964;BME280;34776;48.180;16.420;2023-01-05T11:44:41;99833.56;;;11.98;92.83
48964;BME280;34776;48.180;16.420;2023-01-05T11:47:08;99834.06;;;11.73;92.03
48964;BME280;34776;48.180;16.420;2023-01-05T11:49:34;99824.28;;;11.58;92.85
48964;BME280;34776;48.180;16.420;2023-01-05T11:52:00;99821.44;;;11.45;93.02
48964;BME280;34776;48.180;16.420;2023-01-05T11:54:36;99828.38;;;11.48;94.25
48964;BME280;34776;48.180;16.420;2023-01-05T11:57:17;99820.31;;;11.49;94.12
48964;BME280;34776;48.180;16.420;2023-01-05T11:59:46;99807.97;;;11.64;94.76
48964;BME280;34776;48.180;16.420;2023-01-05T12:07:33;99805.75;;;11.72;93.01
48964;BME280;34776;48.180;16.420;2023-01-05T12:12:59;99803.84;;;11.90;90.43
48964;BME280;34776;48.180;16.420;2023-01-05T12:21:21;99798.50;;;12.22;87.06
48964;BME280;34776;48.180;16.420;2023-01-05T12:26:28;99785.34;;;12.19;84.81
48964;BME280;34776;48.180;16.420;2023-01-05T12:29:24;99779.59;;;12.11;80.46
48964;BME280;34776;48.180;16.420;2023-01-05T12:32:39;99782.34;;;12.09;83.94
48964;BME280;34776;48.180;16.420;2023-01-05T12:38:23;99780.97;;;11.86;83.12
48964;BME280;34776;48.180;16.420;2023-01-05T12:43:50;99793.44;;;11.86;83.19
48964;BME280;34776;48.180;16.420;2023-01-05T12:49:17;99797.06;;;12.01;81.78
48964;BME280;34776;48.180;16.420;2023-01-05T12:51:51;99803.50;;;12.12;82.75
48964;BME280;34776;48.180;16.420;2023-01-05T12:54:39;99797.13;;;12.15;80.42
48964;BME280;34776;48.180;16.420;2023-01-05T12:57:12;99794.66;;;12.12;82.36
48964;BME280;34776;48.180;16.420;2023-01-05T13:00:07;99786.84;;;12.09;79.91
48964;BME280;34776;48.180;16.420;2023-01-05T13:13:00;99800.47;;;12.49;81.53
48964;BME280;34776;48.180;16.420;2023-01-05T13:18:42;99809.63;;;12.59;79.98
48964;BME280;34776;48.180;16.420;2023-01-05T13:21:12;99795.94;;;12.65;78.38
48964;BME280;34776;48.180;16.420;2023-01-05T13:23:46;99797.47;;;12.69;76.73
48964;BME280;34776;48.180;16.420;2023-01-05T13:26:15;99805.66;;;12.80;78.24
48964;BME280;34776;48.180;16.420;2023-01-05T13:28:41;99819.41;;;12.89;77.67
48964;BME280;34776;48.180;16.420;2023-01-05T13:48:25;99859.38;;;13.19;71.02
48964;BME280;34776;48.180;16.420;2023-01-05T13:53:36;99864.41;;;13.09;69.36
48964;BME280;34776;48.180;16.420;2023-01-05T13:56:09;99865.53;;;13.05;69.86
48964;BME280;34776;48.180;16.420;2023-01-05T13:58:43;99873.91;;;12.99;69.45
48964;BME280;34776;48.180;16.420;2023-01-05T14:01:15;99868.94;;;12.93;68.83
48964;BME280;34776;48.180;16.420;2023-01-05T14:03:49;99879.19;;;12.85;68.78
48964;BME280;34776;48.180;16.420;2023-01-05T14:06:21;99876.13;;;12.76;67.96
48964;BME280;34776;48.180;16.420;2023-01-05T14:08:58;99875.06;;;12.65;67.60
48964;BME280;34776;48.180;16.420;2023-01-05T14:11:26;99882.56;;;12.58;67.49
48964;BME280;34776;48.180;16.420;2023-01-05T14:14:00;99888.41;;;12.49;67.11
48964;BME280;34776;48.180;16.420;2023-01-05T14:21:59;99895.94;;;12.26;62.83
48964;BME280;34776;48.180;16.420;2023-01-05T14:24:35;99903.00;;;12.27;65.34
48964;BME280;34776;48.180;16.420;2023-01-05T14:27:21;99901.63;;;12.20;63.95
48964;BME280;34776;48.180;16.420;2023-01-05T14:34:53;99907.22;;;12.00;64.17
48964;BME280;34776;48.180;16.420;2023-01-05T14:37:22;99901.13;;;11.97;63.65
48964;BME280;34776;48.180;16.420;2023-01-05T14:39:49;99912.69;;;11.96;63.80
48964;BME280;34776;48.180;16.420;2023-01-05T14:42:32;99908.66;;;11.89;62.16
48964;BME280;34776;48.180;16.420;2023-01-05T14:45:01;99906.94;;;11.88;63.19
48964;BME280;34776;48.180;16.420;2023-01-05T14:47:38;99916.78;;;11.86;61.47
48964;BME280;34776;48.180;16.420;2023-01-05T14:50:06;99914.91;;;11.88;63.26
48964;BME280;34776;48.180;16.420;2023-01-05T15:04:04;99925.81;;;11.50;65.22
48964;BME280;34776;48.180;16.420;2023-01-05T15:06:44;99928.78;;;11.44;66.15
48964;BME280;34776;48.180;16.420;2023-01-05T15:17:22;99946.44;;;11.29;66.48
48964;BME280;34776;48.180;16.420;2023-01-05T15:23:00;99946.91;;;11.20;66.86
48964;BME280;34776;48.180;16.420;2023-01-05T15:25:53;99953.41;;;11.14;66.42
48964;BME280;34776;48.180;16.420;2023-01-05T15:31:27;99951.00;;;11.10;66.44
48964;BME280;34776;48.180;16.420;2023-01-05T15:34:03;99946.84;;;11.04;67.22
48964;BME280;34776;48.180;16.420;2023-01-05T15:36:35;99945.25;;;11.00;67.12
48964;BME280;34776;48.180;16.420;2023-01-05T15:39:21;99954.97;;;11.01;66.74
48964;BME280;34776;48.180;16.420;2023-01-05T15:41:47;99956.06;;;10.97;67.31
48964;BME280;34776;48.180;16.420;2023-01-05T15:44:16;99969.59;;;10.92;67.24
48964;BME280;34776;48.180;16.420;2023-01-05T15:46:46;99965.31;;;10.90;67.36
48964;BME280;34776;48.180;16.420;2023-01-05T15:49:22;99976.09;;;10.87;66.52
48964;BME280;34776;48.180;16.420;2023-01-05T15:51:51;99966.47;;;10.84;67.18